Time;durP1;ratioP1;P1;durP2;ratioP2;P2;SDS_P1;SDS_P2;PMS_P1;PMS_P2;Temp;Humidity;BMP_temperature;BMP_pressure;BME280_temperature;BME280_humidity;BME280_pressure;Samples;Min_cycle;Max_cycle;Signal;HPM_P1;HPM_P2
2021/09/05 00:01:35;;;;;;;4.47;1.40;;;;;;;;;;8181216;28;20389;-74
2021/09/05 00:05:39;;;;;;;4.85;2.03;;;;;;;;;;8187246;28;20046;-73
2021/09/05 00:09:44;;;;;;;3.85;1.50;;;;;;;;;;8191906;28;20046;-74
2021/09/05 00:13:50;;;;;;;5.32;1.80;;;;;;;;;;8190990;28;20480;-74
2021/09/05 00:17:56;;;;;;;3.55;1.50;;;;;;;;;;8190385;28;20099;-73
2021/09/05 00:21:59;;;;;;;4.43;1.75;;;;;;;;;;8192778;28;20469;-74
2021/09/05 00:26:04;;;;;;;2.70;1.52;;;;;;;;;;8189880;28;20504;-74
2021/09/05 00:30:09;;;;;;;9.38;1.58;;;;;;;;;;8190219;28;20485;-74
2021/09/05 00:34:14;;;;;;;6.60;2.10;;;;;;;;;;8190656;28;20053;-74
2021/09/05 00:38:20;;;;;;;5.22;2.10;;;;;;;;;;8191525;28;20472;-74
2021/09/05 00:42:27;;;;;;;4.43;1.50;;;;;;;;;;8192040;28;20349;-73
2021/09/05 00:46:36;;;;;;;4.25;2.03;;;;;;;;;;8204836;28;20342;-73
2021/09/05 00:50:44;;;;;;;4.53;2.00;;;;;;;;;;8174043;28;20353;-73
2021/09/05 00:54:53;;;;;;;3.95;1.70;;;;;;;;;;8189676;28;20484;-74
2021/09/05 00:59:02;;;;;;;6.22;1.88;;;;;;;;;;8189114;28;20474;-74
2021/09/05 01:03:08;;;;;;;5.13;2.08;;;;;;;;;;8193158;28;20068;-73
2021/09/05 01:07:15;;;;;;;6.85;2.13;;;;;;;;;;8197348;28;20058;-74
2021/09/05 01:11:22;;;;;;;7.43;1.85;;;;;;;;;;8195135;28;20380;-73
2021/09/05 01:15:28;;;;;;;5.22;2.20;;;;;;;;;;8195311;28;20358;-73
2021/09/05 01:19:35;;;;;;;4.82;2.30;;;;;;;;;;8195067;28;20347;-75
2021/09/05 01:24:22;;;;;;;6.95;2.38;;;;;;;;;;8191236;28;20361;-73
2021/09/05 01:28:46;;;;;;;2.73;1.57;;;;;;;;;;8188032;28;20397;-73
2021/09/05 01:33:09;;;;;;;3.65;1.88;;;;;;;;;;8195490;28;20366;-74
2021/09/05 01:37:37;;;;;;;3.17;1.60;;;;;;;;;;8171503;28;20465;-74
2021/09/05 01:42:01;;;;;;;5.20;1.92;;;;;;;;;;8210018;28;20349;-74
2021/09/05 01:46:38;;;;;;;5.65;2.47;;;;;;;;;;8156295;28;20469;-73
2021/09/05 01:51:06;;;;;;;5.82;1.85;;;;;;;;;;8170832;28;20352;-74
2021/09/05 01:55:35;;;;;;;4.28;2.20;;;;;;;;;;8192720;28;20384;-73
2021/09/05 02:00:05;;;;;;;3.55;1.75;;;;;;;;;;8193906;28;20076;-73
2021/09/05 02:04:22;;;;;;;5.00;2.08;;;;;;;;;;8192236;28;20061;-73
2021/09/05 02:08:45;;;;;;;7.85;2.13;;;;;;;;;;8189958;28;20583;-73
2021/09/05 02:12:50;;;;;;;8.02;3.33;;;;;;;;;;8195664;28;20445;-73
2021/09/05 02:17:26;;;;;;;5.03;2.20;;;;;;;;;;8193106;28;20440;-76
2021/09/05 02:21:52;;;;;;;6.35;2.20;;;;;;;;;;8206827;28;20092;-74
2021/09/05 02:26:18;;;;;;;3.22;2.05;;;;;;;;;;8184410;28;20461;-73
2021/09/05 02:30:22;;;;;;;5.55;2.30;;;;;;;;;;8192772;28;20472;-73
2021/09/05 02:34:50;;;;;;;4.80;2.17;;;;;;;;;;8193864;28;20388;-74
2021/09/05 02:39:20;;;;;;;3.95;2.33;;;;;;;;;;8192271;28;20429;-73
2021/09/05 02:43:53;;;;;;;11.85;2.22;;;;;;;;;;8182712;28;20322;-74
2021/09/05 02:48:11;;;;;;;5.23;2.07;;;;;;;;;;8160050;28;20358;-73
2021/09/05 02:52:35;;;;;;;6.75;1.80;;;;;;;;;;8189897;28;20453;-74
2021/09/05 02:57:07;;;;;;;5.13;2.53;;;;;;;;;;8178726;28;20354;-74
2021/09/05 03:01:30;;;;;;;5.13;2.25;;;;;;;;;;8188960;28;20342;-74
2021/09/05 03:05:55;;;;;;;3.35;1.90;;;;;;;;;;8188030;28;20060;-73
2021/09/05 03:10:23;;;;;;;6.40;2.03;;;;;;;;;;8173747;28;20481;-74
2021/09/05 03:14:54;;;;;;;3.88;1.92;;;;;;;;;;8195318;28;20456;-73
2021/09/05 03:19:20;;;;;;;3.05;1.80;;;;;;;;;;8169319;28;20373;-74
2021/09/05 03:23:49;;;;;;;3.95;2.15;;;;;;;;;;8206633;28;20063;-75
2021/09/05 03:28:12;;;;;;;4.75;2.38;;;;;;;;;;8193151;28;20045;-74
2021/09/05 03:32:36;;;;;;;5.85;2.22;;;;;;;;;;8192441;28;20352;-74
2021/09/05 03:37:02;;;;;;;5.53;2.40;;;;;;;;;;8180701;28;20062;-74
2021/09/05 03:41:37;;;;;;;7.13;1.92;;;;;;;;;;8147574;28;20385;-74
2021/09/05 03:46:14;;;;;;;4.47;2.20;;;;;;;;;;8147695;28;20388;-74
2021/09/05 03:50:41;;;;;;;7.43;2.10;;;;;;;;;;8173814;28;20077;-74
2021/09/05 03:54:46;;;;;;;8.20;2.13;;;;;;;;;;8203729;28;20488;-73
2021/09/05 03:58:51;;;;;;;5.78;2.00;;;;;;;;;;8225639;28;20403;-73
2021/09/05 04:03:00;;;;;;;3.53;1.70;;;;;;;;;;8206393;28;20046;-73
2021/09/05 04:07:08;;;;;;;5.55;1.63;;;;;;;;;;8207248;28;20407;-74
2021/09/05 04:11:13;;;;;;;3.70;1.67;;;;;;;;;;8190014;28;20486;-73
2021/09/05 04:15:18;;;;;;;3.95;1.75;;;;;;;;;;8206991;28;20453;-73
2021/09/05 04:19:24;;;;;;;4.85;2.20;;;;;;;;;;8224610;28;20721;-74
2021/09/05 04:23:29;;;;;;;3.38;1.70;;;;;;;;;;8222890;28;20067;-74
2021/09/05 04:27:34;;;;;;;6.95;1.98;;;;;;;;;;8204835;28;20120;-73
2021/09/05 04:31:38;;;;;;;7.70;1.75;;;;;;;;;;8206702;28;20371;-74
2021/09/05 04:35:42;;;;;;;4.82;2.03;;;;;;;;;;8224484;28;20046;-72
2021/09/05 04:39:48;;;;;;;4.38;2.45;;;;;;;;;;8210932;28;20408;-73
2021/09/05 04:43:52;;;;;;;3.03;1.83;;;;;;;;;;8231185;28;20041;-75
2021/09/05 04:47:58;;;;;;;10.48;2.35;;;;;;;;;;8212293;28;20452;-74
2021/09/05 04:52:06;;;;;;;7.32;1.98;;;;;;;;;;8226961;28;20349;-74
2021/09/05 04:56:11;;;;;;;3.83;1.90;;;;;;;;;;8170395;28;20519;-73
2021/09/05 05:00:17;;;;;;;6.65;2.25;;;;;;;;;;8165019;28;20489;-74
2021/09/05 05:04:21;;;;;;;4.10;1.85;;;;;;;;;;8163902;28;20365;-73
2021/09/05 05:08:26;;;;;;;3.42;1.52;;;;;;;;;;8149359;28;20409;-73
2021/09/05 05:12:30;;;;;;;4.97;2.20;;;;;;;;;;8165386;28;20525;-73
2021/09/05 05:16:36;;;;;;;6.10;1.80;;;;;;;;;;8163353;28;20065;-73
2021/09/05 05:20:43;;;;;;;3.22;1.60;;;;;;;;;;8163828;28;20357;-73
2021/09/05 05:24:47;;;;;;;7.38;2.13;;;;;;;;;;8165020;28;20441;-73
2021/09/05 05:28:51;;;;;;;3.72;1.38;;;;;;;;;;8165383;28;20444;-73
2021/09/05 05:32:58;;;;;;;2.88;1.70;;;;;;;;;;8164705;28;20361;-73
2021/09/05 05:37:04;;;;;;;7.00;1.60;;;;;;;;;;8164620;28;20354;-73
2021/09/05 05:41:09;;;;;;;4.28;1.50;;;;;;;;;;8165599;28;20346;-73
2021/09/05 05:45:13;;;;;;;2.85;1.40;;;;;;;;;;8146230;28;20050;-73
2021/09/05 05:49:18;;;;;;;3.38;1.35;;;;;;;;;;8161079;28;20077;-74
2021/09/05 05:53:23;;;;;;;3.83;1.50;;;;;;;;;;8171288;28;20053;-73
2021/09/05 05:57:27;;;;;;;6.78;1.90;;;;;;;;;;8211194;28;20460;-73
2021/09/05 06:01:32;;;;;;;2.35;1.17;;;;;;;;;;8226584;28;20038;-74
2021/09/05 06:05:36;;;;;;;2.63;1.52;;;;;;;;;;8226825;28;20337;-74
2021/09/05 06:09:43;;;;;;;3.75;1.50;;;;;;;;;;8222687;28;20452;-74
2021/09/05 06:13:47;;;;;;;5.03;1.98;;;;;;;;;;8229030;28;20492;-73
2021/09/05 06:17:51;;;;;;;2.88;1.25;;;;;;;;;;8208966;28;20388;-74
2021/09/05 06:21:56;;;;;;;3.63;1.40;;;;;;;;;;8228840;28;20540;-74
2021/09/05 06:26:01;;;;;;;2.55;1.20;;;;;;;;;;8193139;28;20395;-73
2021/09/05 06:30:06;;;;;;;2.13;1.50;;;;;;;;;;8208781;28;20347;-74
2021/09/05 06:34:09;;;;;;;3.63;1.48;;;;;;;;;;8224463;28;20453;-74
2021/09/05 06:38:13;;;;;;;3.17;1.23;;;;;;;;;;8192303;28;20364;-73
2021/09/05 06:42:19;;;;;;;2.75;1.23;;;;;;;;;;8193303;28;20046;-74
2021/09/05 06:46:25;;;;;;;2.95;1.30;;;;;;;;;;8209653;28;20467;-73
2021/09/05 06:50:28;;;;;;;1.42;0.85;;;;;;;;;;8210261;28;20387;-73
2021/09/05 06:54:32;;;;;;;1.42;1.00;;;;;;;;;;8191343;28;20361;-73
2021/09/05 06:58:38;;;;;;;1.52;0.85;;;;;;;;;;8206289;28;20042;-74
2021/09/05 07:02:43;;;;;;;2.75;0.90;;;;;;;;;;8207549;28;20050;-73
2021/09/05 07:06:49;;;;;;;2.05;0.90;;;;;;;;;;8204924;28;20472;-73
2021/09/05 07:10:54;;;;;;;2.45;1.13;;;;;;;;;;8225277;28;20033;-75
2021/09/05 07:14:58;;;;;;;1.00;0.60;;;;;;;;;;8224978;28;20345;-73
2021/09/05 07:19:02;;;;;;;4.18;1.00;;;;;;;;;;8208032;28;20049;-73
2021/09/05 07:23:07;;;;;;;1.85;0.75;;;;;;;;;;8221396;28;20453;-73
2021/09/05 07:27:12;;;;;;;1.77;0.65;;;;;;;;;;8171303;28;20071;-74
2021/09/05 07:31:16;;;;;;;2.30;0.80;;;;;;;;;;8207520;28;20334;-73
2021/09/05 07:35:20;;;;;;;1.25;0.75;;;;;;;;;;8207509;28;20045;-74
2021/09/05 07:39:23;;;;;;;5.32;0.80;;;;;;;;;;8224948;28;20396;-73
2021/09/05 07:43:28;;;;;;;0.98;0.70;;;;;;;;;;8224552;28;20081;-73
2021/09/05 07:47:32;;;;;;;1.13;0.65;;;;;;;;;;8208635;28;20483;-74
2021/09/05 07:51:36;;;;;;;1.10;0.60;;;;;;;;;;8205991;28;20071;-73
2021/09/05 07:55:41;;;;;;;1.50;0.90;;;;;;;;;;8168338;28;20516;-74
2021/09/05 07:59:46;;;;;;;1.10;0.75;;;;;;;;;;8160990;28;20380;-74
2021/09/05 08:03:51;;;;;;;2.90;0.63;;;;;;;;;;8158420;28;20347;-74
2021/09/05 09:13:56;;;;;;;3.17;0.83;;;;;;;;;;8297120;27;2160011;-72
2021/09/05 09:18:04;;;;;;;0.95;0.52;;;;;;;;;;8321045;28;20492;-74
2021/09/05 09:22:18;;;;;;;0.88;0.57;;;;;;;;;;8320981;28;20048;-73
2021/09/05 09:26:22;;;;;;;0.88;0.50;;;;;;;;;;8333541;28;20063;-73
2021/09/05 09:30:36;;;;;;;1.52;0.90;;;;;;;;;;8319337;28;19920;-75
2021/09/05 09:34:47;;;;;;;3.85;1.05;;;;;;;;;;8316187;28;20431;-73
2021/09/05 09:39:05;;;;;;;2.17;0.70;;;;;;;;;;8328180;28;20067;-72
2021/09/05 09:43:22;;;;;;;1.70;0.73;;;;;;;;;;8314543;28;20371;-72
2021/09/05 09:47:25;;;;;;;2.92;0.95;;;;;;;;;;8320355;28;20074;-73
2021/09/05 09:51:30;;;;;;;1.00;0.60;;;;;;;;;;8318484;28;20506;-75
2021/09/05 09:55:41;;;;;;;0.85;0.60;;;;;;;;;;8334988;28;20359;-73
2021/09/05 09:59:44;;;;;;;1.08;0.60;;;;;;;;;;8319601;28;20358;-73
2021/09/05 10:03:51;;;;;;;1.05;0.50;;;;;;;;;;8333218;28;20366;-73
2021/09/05 10:07:57;;;;;;;0.73;0.35;;;;;;;;;;8332558;28;20185;-73
2021/09/05 10:12:03;;;;;;;1.30;0.70;;;;;;;;;;8316185;28;20056;-74
2021/09/05 10:16:11;;;;;;;0.93;0.60;;;;;;;;;;8284425;28;20379;-75
2021/09/05 10:20:17;;;;;;;0.82;0.50;;;;;;;;;;8264059;28;20456;-73
2021/09/05 10:24:21;;;;;;;1.20;0.57;;;;;;;;;;8264291;28;20517;-73
2021/09/05 10:28:39;;;;;;;3.22;0.75;;;;;;;;;;8288177;28;20341;-72
2021/09/05 10:32:47;;;;;;;;;;;;;;;;;;8279309;28;20438;-73
2021/09/05 10:36:53;;;;;;;1.00;0.50;;;;;;;;;;8279105;28;20317;-72
2021/09/05 10:41:03;;;;;;;1.00;0.52;;;;;;;;;;8264497;28;20341;-73
2021/09/05 10:45:08;;;;;;;1.67;0.60;;;;;;;;;;8261370;28;20360;-74
2021/09/05 10:49:12;;;;;;;2.08;0.50;;;;;;;;;;8279848;28;20597;-75
2021/09/05 10:53:23;;;;;;;0.88;0.60;;;;;;;;;;8272168;28;20048;-73
2021/09/05 10:57:41;;;;;;;1.42;0.70;;;;;;;;;;8252012;28;20525;-72
2021/09/05 11:01:49;;;;;;;0.85;0.57;;;;;;;;;;8269085;28;20487;-72
2021/09/05 11:06:37;;;;;;;1.70;0.40;;;;;;;;;;8277306;28;20375;-74
2021/09/05 11:10:52;;;;;;;2.30;0.95;;;;;;;;;;8288516;28;20098;-73
2021/09/05 11:14:58;;;;;;;1.50;0.70;;;;;;;;;;8292518;28;20063;-73
2021/09/05 11:19:05;;;;;;;0.38;0.30;;;;;;;;;;8286731;28;20037;-73
2021/09/05 11:23:10;;;;;;;3.42;0.95;;;;;;;;;;8260451;28;20448;-73
2021/09/05 11:27:16;;;;;;;0.80;0.40;;;;;;;;;;8243092;28;20476;-72
2021/09/05 11:31:22;;;;;;;2.78;1.30;;;;;;;;;;8271124;28;20150;-73
2021/09/05 11:35:26;;;;;;;1.27;0.80;;;;;;;;;;8274198;28;20378;-72
2021/09/05 11:39:35;;;;;;;1.73;0.82;;;;;;;;;;8258268;28;20482;-73
2021/09/05 11:43:41;;;;;;;1.60;0.93;;;;;;;;;;8285693;28;20516;-73
2021/09/05 11:47:47;;;;;;;14.63;7.50;;;;;;;;;;8274068;28;20071;-73
2021/09/05 11:51:58;;;;;;;3.33;1.52;;;;;;;;;;8275223;28;20470;-73
2021/09/05 11:56:03;;;;;;;4.25;1.00;;;;;;;;;;8274927;28;20384;-73
2021/09/05 12:00:09;;;;;;;1.52;0.85;;;;;;;;;;8011224;28;5000745;-72
2021/09/05 12:04:17;;;;;;;6.63;0.70;;;;;;;;;;8174752;28;20076;-72
2021/09/05 12:08:24;;;;;;;1.25;0.63;;;;;;;;;;8167402;28;20368;-72
2021/09/05 12:12:28;;;;;;;1.20;0.82;;;;;;;;;;8180913;28;20481;-72
2021/09/05 12:16:41;;;;;;;0.77;0.60;;;;;;;;;;8190993;28;20393;-73
2021/09/05 12:20:58;;;;;;;2.03;0.68;;;;;;;;;;8206749;28;20476;-73
2021/09/05 12:25:02;;;;;;;26.33;14.15;;;;;;;;;;8201181;28;20065;-72
2021/09/05 12:29:07;;;;;;;1.45;1.00;;;;;;;;;;8203105;28;20460;-72
2021/09/05 12:33:37;;;;;;;;;;;;;;;;;;8178043;28;20354;-72
2021/09/05 12:37:42;;;;;;;1.65;0.80;;;;;;;;;;8206440;28;20559;-72
2021/09/05 12:41:48;;;;;;;11.38;6.10;;;;;;;;;;8185209;28;20045;-74
2021/09/05 12:45:55;;;;;;;1.70;0.90;;;;;;;;;;8225120;28;20373;-73
2021/09/05 12:50:03;;;;;;;1.10;0.63;;;;;;;;;;8225522;28;20464;-73
2021/09/05 12:54:09;;;;;;;1.00;0.65;;;;;;;;;;8222935;28;20412;-73
2021/09/05 12:58:15;;;;;;;7.85;0.75;;;;;;;;;;8198982;28;20493;-73
2021/09/05 13:02:22;;;;;;;2.97;0.90;;;;;;;;;;8198603;28;20050;-72
2021/09/05 13:06:29;;;;;;;4.50;1.83;;;;;;;;;;8209308;28;20368;-72
2021/09/05 13:10:35;;;;;;;1.92;0.70;;;;;;;;;;8202122;28;20358;-72
2021/09/05 13:14:40;;;;;;;1.02;0.60;;;;;;;;;;8176185;28;20481;-73
2021/09/05 13:18:44;;;;;;;0.85;0.60;;;;;;;;;;8167484;28;20363;-73
2021/09/05 13:22:51;;;;;;;1.08;0.75;;;;;;;;;;8154478;28;20108;-72
2021/09/05 13:26:55;;;;;;;1.42;0.82;;;;;;;;;;8173725;28;20039;-73
2021/09/05 13:31:16;;;;;;;1.63;0.68;;;;;;;;;;8157843;28;20461;-72
2021/09/05 13:35:22;;;;;;;4.72;2.17;;;;;;;;;;8155671;28;20431;-72
2021/09/05 13:39:26;;;;;;;1.17;0.70;;;;;;;;;;8164215;28;20462;-72
2021/09/05 13:43:30;;;;;;;1.55;0.60;;;;;;;;;;8160335;28;20519;-72
2021/09/05 13:47:38;;;;;;;0.95;0.85;;;;;;;;;;8145375;28;20046;-72
2021/09/05 13:51:41;;;;;;;3.63;1.70;;;;;;;;;;8159009;28;20120;-72
2021/09/05 13:55:49;;;;;;;1.70;0.90;;;;;;;;;;8177131;28;20050;-72
2021/09/05 13:59:55;;;;;;;1.38;0.70;;;;;;;;;;8185924;28;20375;-72
2021/09/05 14:04:00;;;;;;;2.58;0.80;;;;;;;;;;8197794;28;20473;-73
2021/09/05 14:08:06;;;;;;;1.63;0.68;;;;;;;;;;8198538;28;20069;-73
2021/09/05 14:12:11;;;;;;;1.38;0.60;;;;;;;;;;8193354;28;20519;-73
2021/09/05 14:16:15;;;;;;;1.02;0.63;;;;;;;;;;8164918;28;20038;-72
2021/09/05 14:20:23;;;;;;;2.38;0.75;;;;;;;;;;8179827;28;20346;-72
2021/09/05 14:24:29;;;;;;;1.77;0.75;;;;;;;;;;8150020;28;20472;-72
2021/09/05 14:28:38;;;;;;;0.88;0.52;;;;;;;;;;8192600;28;20045;-72
2021/09/05 14:32:50;;;;;;;1.92;0.90;;;;;;;;;;8162837;28;20482;-72
2021/09/05 14:50:14;;;;;;;1.60;0.73;;;;;;;;;;8168186;28;20473;-71
2021/09/05 14:54:41;;;;;;;1.20;0.65;;;;;;;;;;8182219;28;20350;-72
2021/09/05 14:58:58;;;;;;;1.08;0.68;;;;;;;;;;8180986;28;20042;-71
2021/09/05 15:03:06;;;;;;;3.65;0.60;;;;;;;;;;8182073;28;20469;-72
2021/09/05 15:11:34;;;;;;;2.05;0.65;;;;;;;;;;8180214;28;20525;-72
2021/09/05 15:15:40;;;;;;;0.68;0.40;;;;;;;;;;8168098;28;20405;-72
2021/09/05 15:19:46;;;;;;;0.95;0.60;;;;;;;;;;8180219;28;20107;-72
2021/09/05 15:23:53;;;;;;;2.72;0.70;;;;;;;;;;8180991;28;20465;-72
2021/09/05 15:28:02;;;;;;;1.33;0.90;;;;;;;;;;8162599;28;20040;-72
2021/09/05 15:32:25;;;;;;;1.23;0.70;;;;;;;;;;8162554;28;20499;-72
2021/09/05 15:54:23;;;;;;;0.98;0.68;;;;;;;;;;8164320;28;20072;-72
2021/09/05 15:58:29;;;;;;;0.77;0.47;;;;;;;;;;8164845;28;20390;-72
2021/09/05 16:02:41;;;;;;;1.17;0.70;;;;;;;;;;8162876;28;20454;-73
2021/09/05 16:20:10;;;;;;;1.63;0.82;;;;;;;;;;8369017;28;20371;-72
2021/09/05 16:24:14;;;;;;;0.85;0.70;;;;;;;;;;8352168;28;20338;-72
2021/09/05 16:28:24;;;;;;;1.27;0.80;;;;;;;;;;8383926;28;20500;-72
2021/09/05 16:32:37;;;;;;;0.80;0.60;;;;;;;;;;8365636;28;20477;-73
2021/09/05 16:41:04;;;;;;;1.83;0.80;;;;;;;;;;8357677;28;20459;-72
2021/09/05 16:45:10;;;;;;;1.38;0.77;;;;;;;;;;8366534;28;20039;-71
2021/09/05 16:49:15;;;;;;;3.88;0.90;;;;;;;;;;8365720;28;20446;-72
2021/09/05 16:53:19;;;;;;;1.85;1.25;;;;;;;;;;8366672;28;20465;-72
2021/09/05 16:57:25;;;;;;;2.42;1.02;;;;;;;;;;8365713;28;20065;-72
2021/09/05 17:01:29;;;;;;;2.90;0.75;;;;;;;;;;8348668;28;20362;-72
2021/09/05 17:05:34;;;;;;;1.88;0.80;;;;;;;;;;8365434;28;20339;-72
2021/09/05 17:09:38;;;;;;;3.45;1.08;;;;;;;;;;8364919;28;20043;-72
2021/09/05 17:13:45;;;;;;;1.92;1.10;;;;;;;;;;8360695;28;20474;-72
2021/09/05 17:17:51;;;;;;;1.33;0.88;;;;;;;;;;8347212;28;20047;-72
2021/09/05 17:21:58;;;;;;;1.55;1.00;;;;;;;;;;8348034;28;20477;-73
2021/09/05 17:26:03;;;;;;;2.17;1.10;;;;;;;;;;8302333;28;20487;-72
2021/09/05 17:30:10;;;;;;;4.72;2.60;;;;;;;;;;8307153;28;20059;-73
2021/09/05 17:34:15;;;;;;;4.43;2.38;;;;;;;;;;8313487;28;20066;-72
2021/09/05 17:38:21;;;;;;;6.15;3.25;;;;;;;;;;8337519;28;20490;-72
2021/09/05 17:42:25;;;;;;;12.60;7.18;;;;;;;;;;8322297;28;20471;-72
2021/09/05 17:46:29;;;;;;;6.47;4.00;;;;;;;;;;8327816;28;20429;-73
2021/09/05 17:50:35;;;;;;;15.13;9.38;;;;;;;;;;8332520;28;20381;-72
2021/09/05 17:54:43;;;;;;;12.60;8.55;;;;;;;;;;8359963;28;20365;-74
2021/09/05 17:58:48;;;;;;;35.88;19.67;;;;;;;;;;8347412;28;20040;-72
2021/09/05 18:02:54;;;;;;;31.45;16.88;;;;;;;;;;8309512;28;20353;-72
2021/09/05 18:07:01;;;;;;;27.65;15.25;;;;;;;;;;8295873;28;20493;-72
2021/09/05 18:11:06;;;;;;;35.28;17.52;;;;;;;;;;8207184;28;20381;-73
2021/09/05 18:15:12;;;;;;;26.08;14.05;;;;;;;;;;8172194;28;20331;-73
2021/09/05 18:19:17;;;;;;;20.70;9.52;;;;;;;;;;8224796;28;20377;-72
2021/09/05 18:23:23;;;;;;;13.13;6.63;;;;;;;;;;8210283;28;20457;-72
2021/09/05 18:27:27;;;;;;;12.35;5.18;;;;;;;;;;8214531;28;20450;-73
2021/09/05 18:31:32;;;;;;;12.40;5.30;;;;;;;;;;8209656;28;20388;-73
2021/09/05 18:35:40;;;;;;;14.57;4.30;;;;;;;;;;8208081;28;20480;-72
2021/09/05 18:39:45;;;;;;;12.85;4.68;;;;;;;;;;8224978;28;21014;-72
2021/09/05 18:43:50;;;;;;;13.68;4.65;;;;;;;;;;8208311;28;20364;-73
2021/09/05 18:47:55;;;;;;;8.80;4.72;;;;;;;;;;8207774;28;20064;-73
2021/09/05 18:52:03;;;;;;;18.55;6.15;;;;;;;;;;8181651;28;20368;-72
2021/09/05 18:56:08;;;;;;;9.82;4.95;;;;;;;;;;8226178;28;20089;-72
2021/09/05 19:00:14;;;;;;;14.68;5.20;;;;;;;;;;8210240;28;20488;-72
2021/09/05 19:04:19;;;;;;;6.25;4.10;;;;;;;;;;8206424;28;20473;-74
2021/09/05 19:08:24;;;;;;;13.90;4.28;;;;;;;;;;8218666;28;20344;-72
2021/09/05 19:12:28;;;;;;;8.70;4.20;;;;;;;;;;8244525;28;20455;-73
2021/09/05 19:16:33;;;;;;;7.10;3.70;;;;;;;;;;8225120;28;20350;-72
2021/09/05 19:20:40;;;;;;;10.02;3.58;;;;;;;;;;7538808;28;20004767;-73
2021/09/05 19:24:49;;;;;;;8.02;3.72;;;;;;;;;;8240437;28;20172;-72
2021/09/05 19:28:53;;;;;;;10.88;3.63;;;;;;;;;;8234957;28;20037;-73
2021/09/05 19:32:57;;;;;;;10.85;4.40;;;;;;;;;;8236840;28;20059;-73
2021/09/05 19:37:02;;;;;;;9.02;3.97;;;;;;;;;;8218271;28;20565;-72
2021/09/05 19:41:07;;;;;;;9.80;4.65;;;;;;;;;;8240602;28;20452;-72
2021/09/05 19:45:13;;;;;;;10.20;4.28;;;;;;;;;;8239098;28;20365;-72
2021/09/05 19:49:20;;;;;;;9.40;4.35;;;;;;;;;;8256259;28;20048;-73
2021/09/05 19:53:29;;;;;;;15.57;4.18;;;;;;;;;;8209091;28;20380;-72
2021/09/05 19:57:35;;;;;;;7.75;3.05;;;;;;;;;;8232181;28;20045;-73
2021/09/05 20:01:41;;;;;;;6.78;3.22;;;;;;;;;;8232421;28;20472;-72
2021/09/05 20:05:47;;;;;;;9.55;4.65;;;;;;;;;;8241034;28;20364;-73
2021/09/05 20:09:54;;;;;;;10.88;4.55;;;;;;;;;;8257667;28;20476;-72
2021/09/05 20:14:01;;;;;;;6.10;3.38;;;;;;;;;;8230654;28;20060;-72
2021/09/05 20:18:07;;;;;;;10.10;4.18;;;;;;;;;;8259203;28;20078;-73
2021/09/05 20:22:12;;;;;;;9.90;4.00;;;;;;;;;;8249753;28;20072;-72
2021/09/05 20:26:18;;;;;;;11.43;3.88;;;;;;;;;;8229382;28;20368;-72
2021/09/05 20:30:22;;;;;;;10.55;4.25;;;;;;;;;;8242765;28;20456;-73
2021/09/05 20:34:29;;;;;;;8.98;3.78;;;;;;;;;;8239038;28;20088;-72
2021/09/05 20:38:33;;;;;;;10.13;3.55;;;;;;;;;;8239139;28;20376;-73
2021/09/05 20:42:37;;;;;;;10.43;3.20;;;;;;;;;;8249905;28;20460;-72
2021/09/05 20:46:41;;;;;;;6.70;2.78;;;;;;;;;;8239551;28;20479;-72
2021/09/05 20:50:52;;;;;;;8.65;3.15;;;;;;;;;;8239719;28;20406;-72
2021/09/05 20:54:57;;;;;;;8.63;3.22;;;;;;;;;;8240049;28;20071;-73
2021/09/05 20:59:03;;;;;;;8.57;3.38;;;;;;;;;;8263177;28;20380;-73
2021/09/05 21:03:08;;;;;;;8.73;2.97;;;;;;;;;;8227690;28;20476;-72
2021/09/05 21:07:14;;;;;;;13.75;3.42;;;;;;;;;;8245452;28;20068;-72
2021/09/05 21:11:19;;;;;;;10.40;3.13;;;;;;;;;;8262416;28;20044;-72
2021/09/05 21:15:24;;;;;;;12.40;3.47;;;;;;;;;;8262503;28;20072;-73
2021/09/05 21:19:29;;;;;;;9.95;3.33;;;;;;;;;;8262483;28;20456;-73
2021/09/05 21:23:36;;;;;;;7.25;2.83;;;;;;;;;;8260175;28;20471;-73
2021/09/05 21:27:41;;;;;;;6.10;2.90;;;;;;;;;;8244576;28;20390;-73
2021/09/05 21:31:46;;;;;;;8.70;3.05;;;;;;;;;;8261167;28;20364;-72
2021/09/05 21:35:51;;;;;;;8.00;2.80;;;;;;;;;;8261440;28;20041;-74
2021/09/05 21:39:56;;;;;;;7.18;3.05;;;;;;;;;;8262218;28;20418;-73
2021/09/05 21:44:01;;;;;;;9.23;2.53;;;;;;;;;;8261652;28;20476;-73
2021/09/05 21:48:08;;;;;;;7.47;2.60;;;;;;;;;;8243302;28;20040;-73
2021/09/05 21:52:13;;;;;;;7.63;2.40;;;;;;;;;;8262103;28;20080;-72
2021/09/05 21:56:18;;;;;;;10.13;2.70;;;;;;;;;;8261453;28;20057;-74
2021/09/05 22:00:22;;;;;;;7.38;3.13;;;;;;;;;;8260788;28;20155;-72
2021/09/05 22:04:26;;;;;;;6.03;2.55;;;;;;;;;;8260555;28;20386;-73
2021/09/05 22:08:30;;;;;;;6.45;2.80;;;;;;;;;;8226576;28;20111;-72
2021/09/05 22:12:36;;;;;;;6.32;2.55;;;;;;;;;;8260613;28;20357;-73
2021/09/05 22:16:40;;;;;;;6.03;2.72;;;;;;;;;;8227325;28;20387;-73
2021/09/05 22:20:45;;;;;;;6.13;2.30;;;;;;;;;;8260727;28;20717;-73
2021/09/05 22:24:50;;;;;;;9.63;2.30;;;;;;;;;;8260918;28;20064;-73
2021/09/05 22:28:54;;;;;;;4.78;2.58;;;;;;;;;;8259003;28;20068;-72
2021/09/05 22:33:00;;;;;;;5.72;2.30;;;;;;;;;;8261284;28;20347;-73
2021/09/05 22:37:06;;;;;;;4.82;2.03;;;;;;;;;;8243794;28;20489;-72
2021/09/05 22:41:11;;;;;;;4.07;2.05;;;;;;;;;;8258884;28;20045;-73
2021/09/05 22:45:16;;;;;;;4.65;2.20;;;;;;;;;;8261752;28;20383;-72
2021/09/05 22:49:22;;;;;;;5.45;2.30;;;;;;;;;;8258615;28;20365;-73
2021/09/05 22:53:30;;;;;;;3.80;2.00;;;;;;;;;;8243183;28;20067;-73
2021/09/05 22:57:35;;;;;;;3.92;2.10;;;;;;;;;;8258924;28;20464;-73
2021/09/05 23:01:41;;;;;;;5.35;2.22;;;;;;;;;;8243408;28;20472;-73
2021/09/05 23:05:46;;;;;;;5.05;1.95;;;;;;;;;;8241627;28;20419;-73
2021/09/05 23:09:51;;;;;;;6.55;2.70;;;;;;;;;;8224664;28;20449;-74
2021/09/05 23:13:56;;;;;;;4.63;2.72;;;;;;;;;;8225435;28;20496;-72
2021/09/05 23:18:02;;;;;;;5.18;2.08;;;;;;;;;;8225753;28;20076;-73
2021/09/05 23:22:07;;;;;;;5.20;2.40;;;;;;;;;;8225697;28;20593;-73
2021/09/05 23:26:13;;;;;;;6.25;1.80;;;;;;;;;;8224583;28;20480;-73
2021/09/05 23:30:17;;;;;;;2.92;1.83;;;;;;;;;;8225603;28;20468;-73
2021/09/05 23:34:22;;;;;;;6.75;1.80;;;;;;;;;;8223750;28;20318;-73
2021/09/05 23:38:28;;;;;;;6.57;2.30;;;;;;;;;;8224781;28;20502;-73
2021/09/05 23:42:33;;;;;;;3.60;2.03;;;;;;;;;;8224563;28;20457;-73
2021/09/05 23:46:38;;;;;;;3.53;1.90;;;;;;;;;;8225447;28;20353;-73
2021/09/05 23:50:43;;;;;;;5.38;2.20;;;;;;;;;;8226115;28;20464;-73
2021/09/05 23:54:48;;;;;;;1.88;1.67;;;;;;;;;;8208423;28;20362;-73
2021/09/05 23:58:53;;;;;;;3.90;1.75;;;;;;;;;;8225188;28;20033;-73
